Tolland, Connecticut
Current Conditions -  °F | °C
As of 6:23 PM on Thursday 27 Nov 2014 (Local Time) from KIJD Reporting Station
Light Snow Light Snow  
Wind Chill: 34°   Ceiling: 2800
Heat Index: 34°   Visibility: 2.5mi
Dew Point: 30°   Wind: 0mph
Humidity: 85%   Direction: NA
Pressure: 30"   Gusts: NA
Location:  41.87°N, 72.37°W
Report Text: KIJD 272323Z AUTO 00000KT 2 1/2SM -SN BR FEW015 OVC028 01/M01 A3000 RMK AO2 P0000 T00111011
Loading
Personal Weather Stations






























Interactive Weather Map New forecast layout! Learn more

10-Day Weather Forecast

Advertisements
Track Severe Weather on mobile